createdAt,value
2024-04-22T00:02:07.387Z,7.50
2024-04-22T00:04:35.076Z,7.65
2024-04-22T00:07:01.915Z,9.27
2024-04-22T00:09:28.662Z,10.27
2024-04-22T00:11:55.504Z,8.35
2024-04-22T00:14:22.246Z,9.40
2024-04-22T00:16:49.086Z,8.15
2024-04-22T00:19:15.993Z,7.25
2024-04-22T00:21:42.778Z,6.25
2024-04-22T00:24:09.574Z,6.88
2024-04-22T00:26:36.423Z,8.15
2024-04-22T00:29:03.190Z,7.95
2024-04-22T00:31:29.999Z,6.63
2024-04-22T00:33:56.766Z,6.43
2024-04-22T00:36:23.546Z,7.03
2024-04-22T00:38:50.314Z,10.60
2024-04-22T00:41:17.064Z,7.60
2024-04-22T00:43:43.881Z,7.85
2024-04-22T00:46:10.765Z,7.07
2024-04-22T00:48:37.657Z,6.78
2024-04-22T00:51:04.531Z,6.75
2024-04-22T00:53:31.760Z,8.48
2024-04-22T00:55:58.543Z,8.20
2024-04-22T00:58:26.011Z,8.52
2024-04-22T01:00:53.239Z,8.80
2024-04-22T01:03:20.364Z,8.07
2024-04-22T01:05:47.179Z,7.60
2024-04-22T01:08:14.010Z,8.77
2024-04-22T01:10:40.987Z,8.02
2024-04-22T01:13:08.137Z,6.82
2024-04-22T01:15:34.923Z,7.57
2024-04-22T01:18:01.783Z,7.43
2024-04-22T01:20:28.672Z,6.88
2024-04-22T01:22:55.415Z,8.10
2024-04-22T01:25:23.236Z,7.30
2024-04-22T01:27:50.395Z,7.03
2024-04-22T01:30:17.156Z,8.50
2024-04-22T01:32:44.015Z,7.35
2024-04-22T01:35:11.115Z,7.50
2024-04-22T01:37:38.089Z,8.35
2024-04-22T01:40:05.318Z,9.63
2024-04-22T01:42:32.121Z,7.68
2024-04-22T01:44:58.890Z,7.88
2024-04-22T01:47:25.716Z,8.98
2024-04-22T01:49:52.519Z,7.72
2024-04-22T01:52:19.314Z,7.00
2024-04-22T01:54:46.142Z,6.57
2024-04-22T01:57:12.921Z,8.00
2024-04-22T01:59:39.713Z,8.95
2024-04-22T02:02:06.523Z,7.07
2024-04-22T02:04:33.389Z,8.70
2024-04-22T02:07:00.207Z,7.55
2024-04-22T02:09:26.954Z,6.60
2024-04-22T02:11:53.824Z,8.65
2024-04-22T02:14:20.877Z,8.07
2024-04-22T02:16:48.087Z,7.60
2024-04-22T02:19:14.960Z,9.68
2024-04-22T02:21:41.727Z,10.88
2024-04-22T02:24:08.491Z,10.88
2024-04-22T02:26:35.303Z,9.40
2024-04-22T02:29:02.067Z,9.23
2024-04-22T02:31:28.870Z,8.43
2024-04-22T02:33:55.728Z,8.65
2024-04-22T02:36:22.481Z,10.15
2024-04-22T02:38:49.286Z,8.30
2024-04-22T02:41:16.050Z,9.45
2024-04-22T02:43:42.846Z,10.43
2024-04-22T02:46:09.671Z,8.93
2024-04-22T02:48:36.430Z,9.15
2024-04-22T02:51:03.826Z,11.73
2024-04-22T02:53:30.670Z,9.35
2024-04-22T02:55:57.445Z,9.63
2024-04-22T02:58:24.280Z,9.65
2024-04-22T03:00:55.304Z,11.77
2024-04-22T03:03:23.071Z,10.38
2024-04-22T03:05:49.941Z,10.43
2024-04-22T03:08:16.742Z,9.95
2024-04-22T03:10:43.700Z,9.48
2024-04-22T03:13:10.882Z,9.88
2024-04-22T03:15:37.908Z,11.65
2024-04-22T03:18:04.999Z,10.98
2024-04-22T03:20:32.184Z,10.50
2024-04-22T03:22:58.922Z,11.43
2024-04-22T03:25:25.756Z,10.35
2024-04-22T03:27:52.597Z,11.40
2024-04-22T03:30:19.449Z,11.43
2024-04-22T03:32:46.249Z,11.45
2024-04-22T03:35:12.994Z,10.20
2024-04-22T03:37:40.029Z,9.75
2024-04-22T03:40:07.331Z,10.13
2024-04-22T03:42:34.210Z,10.05
2024-04-22T03:45:01.004Z,10.63
2024-04-22T03:47:46.587Z,9.00
2024-04-22T03:50:13.457Z,11.82
2024-04-22T03:52:40.272Z,12.00
2024-04-22T03:55:07.230Z,12.15
2024-04-22T03:57:33.971Z,10.68
2024-04-22T04:00:00.799Z,11.32
2024-04-22T04:02:28.355Z,10.52
2024-04-22T04:04:55.390Z,11.57
2024-04-22T04:07:22.322Z,12.57
2024-04-22T04:09:49.109Z,12.00
2024-04-22T04:12:15.886Z,11.32
2024-04-22T04:14:42.639Z,12.70
2024-04-22T04:17:09.574Z,11.00
2024-04-22T04:19:36.486Z,13.00
2024-04-22T04:22:03.368Z,15.23
2024-04-22T04:24:30.166Z,13.73
2024-04-22T04:26:56.981Z,12.27
2024-04-22T04:29:23.739Z,13.55
2024-04-22T04:31:50.588Z,13.98
2024-04-22T04:34:17.478Z,14.23
2024-04-22T04:36:44.480Z,13.27
2024-04-22T04:39:11.756Z,13.35
2024-04-22T04:41:39.429Z,14.35
2024-04-22T04:44:06.213Z,14.13
2024-04-22T04:46:33.004Z,14.23
2024-04-22T04:48:59.777Z,13.57
2024-04-22T04:51:26.560Z,14.10
2024-04-22T04:53:53.330Z,13.20
2024-04-22T04:56:20.086Z,14.10
2024-04-22T04:58:46.961Z,15.73
2024-04-22T05:01:16.575Z,14.80
2024-04-22T05:03:45.222Z,15.88
2024-04-22T05:06:12.067Z,15.20
2024-04-22T05:08:38.832Z,15.60
2024-04-22T05:11:05.689Z,13.55
2024-04-22T05:13:32.473Z,13.35
2024-04-22T05:15:59.234Z,16.55
2024-04-22T05:18:27.025Z,14.88
2024-04-22T05:20:53.871Z,15.48
2024-04-22T05:23:20.686Z,15.18
2024-04-22T05:25:47.730Z,15.95
2024-04-22T05:28:16.554Z,15.70
2024-04-22T05:30:43.344Z,14.43
2024-04-22T05:33:30.569Z,15.02
2024-04-22T05:36:14.025Z,13.57
2024-04-22T05:38:44.289Z,14.10
2024-04-22T05:41:11.674Z,15.18
2024-04-22T05:43:38.654Z,14.77
2024-04-22T05:46:07.079Z,14.48
2024-04-22T05:48:34.225Z,12.38
2024-04-22T05:51:01.039Z,15.25
2024-04-22T05:53:27.859Z,13.35
2024-04-22T05:55:54.619Z,15.52
2024-04-22T05:58:21.429Z,15.23
2024-04-22T06:00:48.312Z,15.38
2024-04-22T06:03:15.161Z,12.55
2024-04-22T06:05:41.930Z,12.45
2024-04-22T06:08:08.694Z,14.13
2024-04-22T06:10:35.597Z,13.82
2024-04-22T06:13:02.510Z,14.73
2024-04-22T06:15:29.435Z,14.20
2024-04-22T06:17:56.334Z,13.55
2024-04-22T06:20:23.179Z,12.90
2024-04-22T06:22:50.081Z,12.95
2024-04-22T06:25:18.932Z,12.43
2024-04-22T06:27:46.042Z,13.70
2024-04-22T06:30:12.931Z,12.20
2024-04-22T06:32:39.880Z,12.55
2024-04-22T06:35:06.803Z,12.50
2024-04-22T06:37:33.677Z,10.85
2024-04-22T06:40:00.582Z,11.68
2024-04-22T06:42:27.393Z,13.30
2024-04-22T06:44:54.303Z,10.05
2024-04-22T06:47:22.665Z,11.25
2024-04-22T06:49:49.570Z,9.65
2024-04-22T06:52:16.526Z,13.45
2024-04-22T06:54:43.325Z,9.77
2024-04-22T06:57:11.551Z,13.27
2024-04-22T06:59:38.353Z,9.27
2024-04-22T07:02:09.324Z,10.88
2024-04-22T07:04:38.624Z,9.15
2024-04-22T07:07:05.584Z,9.45
2024-04-22T07:09:33.292Z,10.32
2024-04-22T07:12:00.698Z,10.13
2024-04-22T07:14:27.726Z,9.32
2024-04-22T07:16:55.146Z,9.35
2024-04-22T07:19:22.078Z,9.77
2024-04-22T07:21:49.136Z,7.97
2024-04-22T07:24:16.164Z,7.80
2024-04-22T07:26:42.996Z,8.10
2024-04-22T07:29:09.850Z,8.68
2024-04-22T07:31:36.872Z,9.60
2024-04-22T07:34:04.186Z,10.45
2024-04-22T07:36:38.222Z,8.50
2024-04-22T07:39:06.039Z,9.95
2024-04-22T07:41:33.619Z,7.85
2024-04-22T07:44:00.958Z,8.48
2024-04-22T07:46:27.793Z,9.98
2024-04-22T07:48:54.695Z,9.65
2024-04-22T07:51:21.501Z,9.00
2024-04-22T07:53:48.523Z,9.20
2024-04-22T07:56:15.967Z,9.27
2024-04-22T07:58:43.513Z,7.75
2024-04-22T08:01:10.505Z,8.80
2024-04-22T08:03:37.528Z,8.35
2024-04-22T08:06:05.729Z,6.70
2024-04-22T08:08:33.841Z,8.10
2024-04-22T08:11:01.059Z,6.60
2024-04-22T08:13:28.013Z,6.55
2024-04-22T08:15:55.208Z,5.75
2024-04-22T08:18:22.004Z,6.00
2024-04-22T08:20:48.968Z,5.47
2024-04-22T08:23:15.961Z,5.38
2024-04-22T08:25:45.766Z,5.75
2024-04-22T08:28:12.667Z,4.90
2024-04-22T08:30:41.368Z,6.03
2024-04-22T08:33:08.548Z,6.32
2024-04-22T08:35:35.436Z,5.80
2024-04-22T08:38:02.321Z,6.82
2024-04-22T08:40:29.306Z,6.78
2024-04-22T08:42:57.810Z,6.18
2024-04-22T08:45:24.688Z,5.45
2024-04-22T08:47:51.923Z,6.28
2024-04-22T08:50:19.101Z,6.15
2024-04-22T08:52:54.050Z,5.55
2024-04-22T08:55:23.576Z,4.53
2024-04-22T08:57:50.917Z,6.72
2024-04-22T09:00:18.149Z,5.03
2024-04-22T09:02:45.086Z,4.30
2024-04-22T09:05:12.380Z,5.95
2024-04-22T09:07:39.463Z,4.43
2024-04-22T09:10:34.688Z,4.72
2024-04-22T09:12:57.163Z,5.18
2024-04-22T09:15:24.300Z,3.97
2024-04-22T09:17:51.513Z,5.78
2024-04-22T09:20:19.494Z,5.55
2024-04-22T09:22:46.593Z,7.10
2024-04-22T09:25:15.613Z,4.10
2024-04-22T09:27:47.713Z,4.10
2024-04-22T09:30:15.499Z,4.07
2024-04-22T09:32:46.475Z,3.65
2024-04-22T09:35:20.012Z,3.35
2024-04-22T09:37:49.949Z,2.92
2024-04-22T09:40:18.533Z,3.40
2024-04-22T09:45:28.906Z,5.03
2024-04-22T09:47:56.538Z,4.88
2024-04-22T09:50:25.474Z,3.28
2024-04-22T09:52:52.616Z,3.30
2024-04-22T09:55:19.815Z,3.60
2024-04-22T09:57:48.732Z,3.25
2024-04-22T10:00:17.565Z,3.85
2024-04-22T10:02:47.833Z,3.22
2024-04-22T10:05:15.590Z,2.90
2024-04-22T10:07:42.830Z,2.78
2024-04-22T10:10:10.693Z,4.50
2024-04-22T10:12:37.705Z,3.55
2024-04-22T10:15:08.267Z,2.13
2024-04-22T10:17:35.790Z,2.67
2024-04-22T10:20:03.210Z,3.47
2024-04-22T10:22:33.587Z,3.65
2024-04-22T10:25:06.660Z,3.40
2024-04-22T10:27:34.470Z,3.03
2024-04-22T10:30:03.776Z,3.67
2024-04-22T10:32:34.009Z,2.40
2024-04-22T10:35:01.009Z,6.40
2024-04-22T10:37:30.306Z,3.95
2024-04-22T10:39:57.097Z,5.57
2024-04-22T10:42:27.753Z,2.67
2024-04-22T10:44:55.099Z,3.40
2024-04-22T10:47:21.952Z,2.50
2024-04-22T10:49:54.447Z,3.70
2024-04-22T10:52:25.348Z,4.25
2024-04-22T10:54:55.316Z,3.53
2024-04-22T10:57:22.318Z,5.28
2024-04-22T10:59:53.395Z,7.38
2024-04-22T11:02:20.545Z,5.63
2024-04-22T11:04:50.214Z,9.02
2024-04-22T11:07:17.612Z,6.07
2024-04-22T11:09:44.829Z,5.10
2024-04-22T11:12:11.862Z,5.22
2024-04-22T11:14:39.303Z,4.78
2024-04-22T11:17:06.801Z,3.90
2024-04-22T11:19:33.669Z,5.57
2024-04-22T11:22:00.587Z,5.45
2024-04-22T11:24:27.590Z,4.97
2024-04-22T11:26:54.572Z,4.40
2024-04-22T11:29:21.441Z,3.78
2024-04-22T11:31:48.458Z,4.60
2024-04-22T11:34:16.670Z,6.38
2024-04-22T11:36:44.795Z,3.50
2024-04-22T11:39:15.250Z,4.47
2024-04-22T11:41:42.286Z,4.05
2024-04-22T11:44:09.124Z,4.93
2024-04-22T11:46:36.015Z,4.68
2024-04-22T11:49:02.922Z,4.38
2024-04-22T11:51:30.386Z,5.95
2024-04-22T11:53:57.311Z,4.30
2024-04-22T11:56:27.336Z,4.80
2024-04-22T11:58:54.271Z,5.22
2024-04-22T12:01:21.445Z,4.38
2024-04-22T12:03:48.460Z,4.15
2024-04-22T12:06:15.341Z,5.60
2024-04-22T12:08:42.412Z,5.65
2024-04-22T12:11:09.624Z,5.15
2024-04-22T12:13:36.695Z,4.75
2024-04-22T12:16:03.776Z,6.20
2024-04-22T12:18:30.880Z,4.43
2024-04-22T12:21:03.309Z,4.32
2024-04-22T12:23:31.905Z,4.40
2024-04-22T12:25:58.803Z,4.60
2024-04-22T12:28:25.839Z,5.72
2024-04-22T12:30:53.087Z,4.80
2024-04-22T12:33:20.143Z,5.20
2024-04-22T12:35:47.166Z,5.07
2024-04-22T12:38:13.966Z,7.38
2024-04-22T12:40:41.307Z,4.75
2024-04-22T12:43:10.918Z,4.60
2024-04-22T12:45:37.773Z,3.88
2024-04-22T12:48:23.342Z,3.30
2024-04-22T12:50:51.278Z,4.40
2024-04-22T12:53:18.207Z,3.58
2024-04-22T12:55:45.571Z,3.50
2024-04-22T12:58:14.277Z,3.88
2024-04-22T13:00:41.204Z,3.90
2024-04-22T13:03:08.190Z,3.78
2024-04-22T13:05:36.115Z,4.95
2024-04-22T13:08:03.244Z,3.20
2024-04-22T13:10:30.298Z,4.25
2024-04-22T13:12:57.400Z,3.00
2024-04-22T13:15:24.338Z,2.90
2024-04-22T13:17:51.814Z,3.17
2024-04-22T13:20:18.757Z,3.20
2024-04-22T13:22:45.749Z,2.90
2024-04-22T13:25:12.767Z,5.20
2024-04-22T13:27:39.613Z,4.50
2024-04-22T13:30:10.470Z,4.80
2024-04-22T13:32:38.605Z,4.82
2024-04-22T13:35:06.112Z,5.38
2024-04-22T13:37:35.764Z,5.55
2024-04-22T13:40:02.640Z,5.07
2024-04-22T13:42:32.327Z,5.43
2024-04-22T13:45:01.964Z,5.38
2024-04-22T13:47:28.841Z,4.60
2024-04-22T13:49:55.863Z,5.20
2024-04-22T13:52:22.909Z,4.65
2024-04-22T13:54:49.937Z,4.40
2024-04-22T13:57:16.879Z,5.50
2024-04-22T13:59:43.696Z,4.75
2024-04-22T14:02:10.553Z,5.05
2024-04-22T14:04:37.422Z,4.15
2024-04-22T14:07:06.567Z,4.78
2024-04-22T14:09:33.707Z,9.02
2024-04-22T14:12:00.620Z,5.05
2024-04-22T14:14:30.201Z,4.75
2024-04-22T14:16:57.297Z,7.60
2024-04-22T14:19:24.268Z,5.18
2024-04-22T14:21:52.116Z,4.10
2024-04-22T14:24:18.950Z,5.03
2024-04-22T14:26:45.779Z,6.55
2024-04-22T14:29:12.901Z,5.72
2024-04-22T14:31:39.737Z,4.20
2024-04-22T14:34:07.478Z,5.88
2024-04-22T14:36:34.496Z,3.83
2024-04-22T14:39:01.461Z,4.82
2024-04-22T14:41:28.247Z,9.88
2024-04-22T14:43:55.293Z,4.32
2024-04-22T14:46:24.335Z,4.35
2024-04-22T14:48:51.216Z,4.90
2024-04-22T14:51:18.026Z,4.97
2024-04-22T14:53:44.895Z,4.60
2024-04-22T14:56:11.709Z,4.72
2024-04-22T14:58:38.993Z,5.88
2024-04-22T15:01:05.873Z,4.97
2024-04-22T15:03:32.787Z,4.05
2024-04-22T15:05:59.741Z,4.50
2024-04-22T15:08:26.566Z,6.03
2024-04-22T15:10:53.840Z,5.47
2024-04-22T15:13:20.886Z,6.03
2024-04-22T15:15:47.966Z,7.10
2024-04-22T15:18:14.926Z,7.20
2024-04-22T15:20:41.796Z,5.97
2024-04-22T15:23:08.567Z,5.75
2024-04-22T15:25:35.717Z,5.22
2024-04-22T15:28:02.945Z,6.18
2024-04-22T15:30:32.960Z,5.20
2024-04-22T15:32:59.970Z,5.53
2024-04-22T15:35:26.811Z,5.40
2024-04-22T15:37:53.849Z,6.00
2024-04-22T15:40:21.382Z,5.05
2024-04-22T15:42:48.470Z,6.15
2024-04-22T15:45:15.311Z,6.07
2024-04-22T15:47:42.226Z,5.43
2024-04-22T15:50:09.099Z,6.03
2024-04-22T15:52:36.435Z,5.88
2024-04-22T15:55:03.320Z,6.10
2024-04-22T15:57:30.293Z,6.10
2024-04-22T16:00:06.590Z,6.72
2024-04-22T16:02:37.092Z,6.57
2024-04-22T16:05:04.436Z,5.97
2024-04-22T16:07:31.641Z,6.05
2024-04-22T16:09:58.623Z,6.28
2024-04-22T16:12:25.808Z,5.40
2024-04-22T16:14:52.676Z,5.18
2024-04-22T16:17:19.624Z,6.25
2024-04-22T16:19:46.503Z,5.50
2024-04-22T16:22:13.413Z,5.47
2024-04-22T16:24:40.410Z,5.55
2024-04-22T16:27:07.277Z,5.45
2024-04-22T16:29:34.308Z,5.20
2024-04-22T16:32:01.300Z,5.82
2024-04-22T16:34:29.838Z,6.80
2024-04-22T16:36:56.676Z,6.35
2024-04-22T16:39:23.524Z,6.35
2024-04-22T16:41:50.508Z,6.78
2024-04-22T16:44:17.308Z,6.47
2024-04-22T16:46:44.159Z,6.97
2024-04-22T16:49:11.031Z,7.43
2024-04-22T16:51:39.025Z,7.03
2024-04-22T16:54:05.928Z,7.15
2024-04-22T16:56:32.805Z,6.97
2024-04-22T16:58:59.636Z,6.68
2024-04-22T17:01:26.915Z,6.60
2024-04-22T17:03:53.919Z,6.72
2024-04-22T17:06:20.887Z,6.72
2024-04-22T17:08:47.717Z,7.95
2024-04-22T17:11:14.608Z,6.78
2024-04-22T17:13:41.648Z,7.43
2024-04-22T17:16:10.720Z,6.65
2024-04-22T17:18:38.421Z,7.28
2024-04-22T17:21:05.410Z,7.20
2024-04-22T17:23:33.174Z,6.63
2024-04-22T17:26:00.407Z,7.18
2024-04-22T17:28:28.473Z,6.90
2024-04-22T17:30:55.364Z,7.70
2024-04-22T17:33:22.387Z,7.78
2024-04-22T17:35:50.545Z,8.10
2024-04-22T17:38:18.917Z,6.57
2024-04-22T17:40:55.943Z,6.78
2024-04-22T17:43:23.435Z,5.40
2024-04-22T17:46:06.394Z,7.68
2024-04-22T17:48:33.746Z,7.28
2024-04-22T17:51:00.941Z,6.95
2024-04-22T17:53:28.393Z,8.45
2024-04-22T17:55:58.031Z,7.00
2024-04-22T17:58:24.959Z,7.63
2024-04-22T18:00:51.793Z,6.35
2024-04-22T18:03:18.837Z,7.30
2024-04-22T18:05:45.786Z,6.32
2024-04-22T18:08:12.880Z,7.78
2024-04-22T18:10:43.424Z,6.00
2024-04-22T18:13:10.403Z,7.77
2024-04-22T18:15:37.459Z,5.88
2024-04-22T18:18:04.524Z,6.32
2024-04-22T18:20:32.012Z,6.15
2024-04-22T18:23:01.829Z,7.78
2024-04-22T18:25:33.905Z,7.43
2024-04-22T18:28:05.609Z,6.00
2024-04-22T18:30:32.493Z,6.65
2024-04-22T18:33:01.499Z,7.45
2024-04-22T18:35:28.960Z,7.03
2024-04-22T18:37:55.867Z,7.32
2024-04-22T18:40:22.904Z,7.32
2024-04-22T18:42:49.720Z,6.32
2024-04-22T18:45:16.561Z,7.82
2024-04-22T18:47:43.719Z,6.32
2024-04-22T18:50:10.585Z,7.15
2024-04-22T18:52:37.402Z,8.77
2024-04-22T18:55:04.236Z,10.35
2024-04-22T18:57:31.050Z,8.02
2024-04-22T18:59:57.864Z,7.32
2024-04-22T19:02:25.058Z,9.93
2024-04-22T19:04:52.044Z,7.40
2024-04-22T19:07:18.916Z,7.50
2024-04-22T19:09:45.927Z,8.25
2024-04-22T19:12:12.768Z,8.80
2024-04-22T19:14:41.010Z,10.02
2024-04-22T19:17:09.294Z,8.85
2024-04-22T19:19:36.089Z,8.73
2024-04-22T19:22:02.882Z,7.80
2024-04-22T19:24:29.664Z,6.85
2024-04-22T19:26:56.470Z,6.70
2024-04-22T19:29:23.383Z,9.07
2024-04-22T19:31:50.322Z,7.15
2024-04-22T19:34:17.333Z,8.23
2024-04-22T19:36:44.174Z,7.70
2024-04-22T19:39:12.819Z,7.10
2024-04-22T19:41:45.476Z,8.20
2024-04-22T19:44:12.358Z,6.35
2024-04-22T19:46:39.318Z,9.80
2024-04-22T19:49:06.709Z,10.07
2024-04-22T19:51:33.505Z,10.43
2024-04-22T19:54:00.396Z,10.10
2024-04-22T19:56:27.211Z,9.38
2024-04-22T19:58:54.198Z,8.55
2024-04-22T20:01:22.035Z,9.00
2024-04-22T20:03:49.091Z,9.27
2024-04-22T20:06:15.901Z,9.00
2024-04-22T20:08:42.781Z,9.05
2024-04-22T20:13:50.317Z,8.77
2024-04-22T20:16:20.700Z,9.55
2024-04-22T20:21:40.866Z,9.05
2024-04-22T20:24:07.734Z,10.40
2024-04-22T20:26:34.532Z,9.73
2024-04-22T20:29:01.356Z,9.48
2024-04-22T20:31:28.436Z,11.68
2024-04-22T20:33:55.533Z,9.40
2024-04-22T20:36:23.593Z,9.63
2024-04-22T20:38:50.379Z,10.07
2024-04-22T20:41:17.452Z,10.65
2024-04-22T20:43:44.259Z,12.13
2024-04-22T20:46:11.081Z,9.85
2024-04-22T20:48:38.743Z,9.90
2024-04-22T20:51:07.661Z,10.18
2024-04-22T20:53:34.593Z,9.63
2024-04-22T20:56:04.850Z,10.50
2024-04-22T20:58:37.993Z,9.50
2024-04-22T21:01:04.927Z,9.77
2024-04-22T21:03:31.995Z,8.95
2024-04-22T21:05:58.935Z,9.68
2024-04-22T21:08:26.831Z,8.63
2024-04-22T21:10:54.165Z,8.88
2024-04-22T21:13:21.228Z,9.93
2024-04-22T21:15:48.525Z,10.05
2024-04-22T21:18:18.922Z,11.10
2024-04-22T21:20:50.515Z,11.82
2024-04-22T21:23:17.448Z,11.23
2024-04-22T21:25:44.308Z,10.02
2024-04-22T21:28:11.178Z,10.38
2024-04-22T21:30:37.966Z,8.43
2024-04-22T21:33:18.618Z,9.40
2024-04-22T21:35:51.534Z,8.18
2024-04-22T21:38:18.361Z,9.48
2024-04-22T21:40:46.002Z,9.68
2024-04-22T21:43:12.839Z,8.68
2024-04-22T21:45:39.717Z,9.52
2024-04-22T21:48:06.676Z,9.18
2024-04-22T21:50:33.463Z,8.60
2024-04-22T21:53:00.342Z,10.85
2024-04-22T21:55:33.164Z,11.75
2024-04-22T21:58:18.516Z,9.13
2024-04-22T22:01:04.024Z,8.32
2024-04-22T22:03:49.449Z,8.65
2024-04-22T22:06:34.893Z,10.80
2024-04-22T22:09:01.751Z,9.23
2024-04-22T22:11:28.498Z,10.70
2024-04-22T22:13:55.378Z,9.25
2024-04-22T22:16:22.237Z,11.38
2024-04-22T22:18:49.114Z,9.77
2024-04-22T22:21:16.025Z,9.13
2024-04-22T22:23:42.810Z,11.20
2024-04-22T22:26:09.602Z,12.20
2024-04-22T22:28:36.360Z,9.27
2024-04-22T22:31:03.101Z,9.85
2024-04-22T22:33:29.923Z,10.80
2024-04-22T22:35:56.890Z,9.77
2024-04-22T22:38:23.693Z,11.38
2024-04-22T22:40:50.597Z,12.70
2024-04-22T22:43:17.429Z,12.10
2024-04-22T22:45:44.257Z,10.48
2024-04-22T22:48:11.092Z,11.50
2024-04-22T22:50:38.134Z,11.65
2024-04-22T22:53:05.281Z,11.13
2024-04-22T22:55:32.321Z,11.90
2024-04-22T22:57:59.108Z,14.00
2024-04-22T23:00:25.906Z,13.95
2024-04-22T23:02:52.719Z,11.48
2024-04-22T23:05:19.551Z,12.38
2024-04-22T23:07:46.333Z,11.00
2024-04-22T23:10:13.153Z,13.40
2024-04-22T23:12:39.961Z,12.60
2024-04-22T23:15:06.917Z,14.85
2024-04-22T23:17:34.467Z,14.50
2024-04-22T23:20:01.390Z,14.18
2024-04-22T23:22:28.194Z,14.95
2024-04-22T23:24:54.964Z,13.63
2024-04-22T23:27:21.721Z,16.58
2024-04-22T23:29:48.587Z,16.30
2024-04-22T23:32:15.487Z,14.63
2024-04-22T23:34:42.387Z,11.93
2024-04-22T23:37:09.294Z,14.30
2024-04-22T23:39:36.150Z,15.05
2024-04-22T23:42:03.054Z,14.82
2024-04-22T23:44:29.921Z,13.93
2024-04-22T23:46:59.287Z,14.32
2024-04-22T23:49:26.868Z,15.85
2024-04-22T23:51:53.978Z,15.63
2024-04-22T23:54:20.732Z,15.18
2024-04-22T23:56:47.578Z,14.77
2024-04-22T23:59:14.387Z,19.25
